TimeMST,TemperatureF,Dew PointF,Humidity,Sea Level PressureIn,VisibilityMPH,Wind Direction,Wind SpeedMPH,Gust SpeedMPH,PrecipitationIn,Events,Conditions,WindDirDegrees,DateUTC
12:53 AM,24.1,17.1,75,29.87,10.0,NE,3.5,-,N/A,,Clear,50,2012-12-07 07:53:00
1:53 AM,27.0,19.0,72,29.86,9.0,North,6.9,-,0.00,Snow,Light Snow,350,2012-12-07 08:53:00
2:53 AM,27.0,15.1,61,29.87,10.0,North,9.2,-,N/A,,Partly Cloudy,350,2012-12-07 09:53:00
3:53 AM,23.0,14.0,68,29.91,10.0,West,4.6,-,N/A,,Clear,280,2012-12-07 10:53:00
4:53 AM,21.9,12.9,68,29.93,10.0,North,5.8,-,N/A,,Clear,350,2012-12-07 11:53:00
5:53 AM,19.9,12.0,71,29.97,10.0,Calm,Calm,-,N/A,,Clear,0,2012-12-07 12:53:00
6:53 AM,15.1,10.0,80,30.00,10.0,NE,6.9,-,N/A,,Clear,50,2012-12-07 13:53:00
7:53 AM,16.0,10.0,77,30.00,10.0,Calm,Calm,-,N/A,,Clear,0,2012-12-07 14:53:00
8:53 AM,21.0,14.0,74,29.99,10.0,South,4.6,-,N/A,,Clear,170,2012-12-07 15:53:00
9:53 AM,24.1,16.0,71,30.01,10.0,East,3.5,-,N/A,,Clear,90,2012-12-07 16:53:00
10:53 AM,28.0,12.0,51,30.01,10.0,NW,16.1,20.7,N/A,,Clear,310,2012-12-07 17:53:00
11:53 AM,30.9,10.9,43,29.97,10.0,NNW,11.5,-,N/A,,Clear,330,2012-12-07 18:53:00
12:53 PM,32.0,9.0,38,29.97,10.0,NW,13.8,24.2,N/A,,Clear,320,2012-12-07 19:53:00
1:53 PM,32.0,8.1,37,29.94,10.0,NW,20.7,26.5,N/A,,Clear,310,2012-12-07 20:53:00
2:53 PM,30.9,9.0,40,29.95,10.0,NW,12.7,-,N/A,,Clear,320,2012-12-07 21:53:00
3:53 PM,30.0,10.0,43,29.96,10.0,NNW,11.5,-,N/A,,Clear,330,2012-12-07 22:53:00
4:53 PM,25.0,10.0,53,29.99,10.0,NNE,4.6,-,N/A,,Overcast,30,2012-12-07 23:53:00
5:53 PM,24.8,10.4,54,29.92,10.0,SW,4.6,-,N/A,,Overcast,230,2012-12-08 00:53:00
6:53 PM,24.8,10.4,54,29.91,10.0,West,3.5,-,N/A,,Overcast,280,2012-12-08 01:53:00
7:53 PM,24.1,12.9,62,30.00,10.0,SSW,15.0,18.4,N/A,,Overcast,200,2012-12-08 02:53:00
8:53 PM,21.9,15.1,75,29.95,10.0,South,8.1,-,N/A,,Overcast,190,2012-12-08 03:53:00
9:53 PM,23.0,17.1,78,29.91,9.0,SW,8.1,-,0.00,Snow,Light Snow,220,2012-12-08 04:53:00
10:53 PM,23.0,19.0,85,29.86,4.0,SW,9.2,-,0.00,Snow,Light Snow,220,2012-12-08 05:53:00
11:13 PM,23.0,21.2,93,29.82,2.0,SW,5.8,-,0.00,Snow,Light Snow,220,2012-12-08 06:13:00
11:21 PM,23.0,21.2,93,29.82,1.8,SW,6.9,-,0.00,Snow,Light Snow,220,2012-12-08 06:21:00
11:32 PM,23.0,21.2,93,29.81,2.0,SSW,8.1,-,0.00,Snow,Light Snow,210,2012-12-08 06:32:00
11:53 PM,24.1,21.0,88,29.81,2.5,SW,9.2,-,0.00,Snow,Light Snow,220,2012-12-08 06:53:00